sensor_id;sensor_type;location;lat;lon;timestamp;temperature;humidity
1103;DHT22;538;42.654;23.376;2023-04-03T00:02:18;10.90;11.80
1103;DHT22;538;42.654;23.376;2023-04-03T00:04:45;10.80;11.70
1103;DHT22;538;42.654;23.376;2023-04-03T00:07:12;10.60;11.90
1103;DHT22;538;42.654;23.376;2023-04-03T00:09:41;10.50;12.20
1103;DHT22;538;42.654;23.376;2023-04-03T00:12:08;10.50;12.60
1103;DHT22;538;42.654;23.376;2023-04-03T00:14:36;10.50;12.80
1103;DHT22;538;42.654;23.376;2023-04-03T00:17:03;10.50;12.60
1103;DHT22;538;42.654;23.376;2023-04-03T00:19:30;10.50;13.00
1103;DHT22;538;42.654;23.376;2023-04-03T00:21:57;10.40;12.20
1103;DHT22;538;42.654;23.376;2023-04-03T00:24:24;10.30;12.30
1103;DHT22;538;42.654;23.376;2023-04-03T00:26:52;10.30;12.40
1103;DHT22;538;42.654;23.376;2023-04-03T00:29:20;10.20;12.70
1103;DHT22;538;42.654;23.376;2023-04-03T00:31:47;10.20;12.80
1103;DHT22;538;42.654;23.376;2023-04-03T00:34:14;10.10;13.00
1103;DHT22;538;42.654;23.376;2023-04-03T00:36:41;10.00;12.80
1103;DHT22;538;42.654;23.376;2023-04-03T00:39:08;10.10;13.60
1103;DHT22;538;42.654;23.376;2023-04-03T00:41:35;9.80;14.30
1103;DHT22;538;42.654;23.376;2023-04-03T00:44:22;9.80;14.60
1103;DHT22;538;42.654;23.376;2023-04-03T00:47:11;9.50;14.80
1103;DHT22;538;42.654;23.376;2023-04-03T00:49:40;9.50;15.00
1103;DHT22;538;42.654;23.376;2023-04-03T00:52:10;9.70;15.40
1103;DHT22;538;42.654;23.376;2023-04-03T00:54:38;9.50;15.70
1103;DHT22;538;42.654;23.376;2023-04-03T00:57:08;9.50;16.10
1103;DHT22;538;42.654;23.376;2023-04-03T00:59:39;9.40;15.70
1103;DHT22;538;42.654;23.376;2023-04-03T01:02:09;9.50;16.20
1103;DHT22;538;42.654;23.376;2023-04-03T01:04:38;9.60;16.40
1103;DHT22;538;42.654;23.376;2023-04-03T01:07:08;9.60;16.80
1103;DHT22;538;42.654;23.376;2023-04-03T01:09:36;9.70;16.60
1103;DHT22;538;42.654;23.376;2023-04-03T01:12:15;9.60;16.90
1103;DHT22;538;42.654;23.376;2023-04-03T01:14:44;9.70;16.80
1103;DHT22;538;42.654;23.376;2023-04-03T01:17:27;9.60;16.70
1103;DHT22;538;42.654;23.376;2023-04-03T01:20:13;9.60;16.70
1103;DHT22;538;42.654;23.376;2023-04-03T01:22:56;9.60;16.80
1103;DHT22;538;42.654;23.376;2023-04-03T01:25:26;9.60;16.90
1103;DHT22;538;42.654;23.376;2023-04-03T01:27:53;9.60;16.90
1103;DHT22;538;42.654;23.376;2023-04-03T01:30:25;9.70;17.50
1103;DHT22;538;42.654;23.376;2023-04-03T01:32:56;9.60;17.00
1103;DHT22;538;42.654;23.376;2023-04-03T01:35:23;9.70;17.50
1103;DHT22;538;42.654;23.376;2023-04-03T01:37:50;9.70;17.60
1103;DHT22;538;42.654;23.376;2023-04-03T01:40:17;9.60;17.30
1103;DHT22;538;42.654;23.376;2023-04-03T01:42:44;9.70;17.90
1103;DHT22;538;42.654;23.376;2023-04-03T01:45:11;9.50;16.90
1103;DHT22;538;42.654;23.376;2023-04-03T01:47:38;9.60;17.30
1103;DHT22;538;42.654;23.376;2023-04-03T01:50:07;9.70;17.30
1103;DHT22;538;42.654;23.376;2023-04-03T01:52:35;9.60;16.90
1103;DHT22;538;42.654;23.376;2023-04-03T01:55:03;9.70;17.40
1103;DHT22;538;42.654;23.376;2023-04-03T01:57:30;9.70;17.00
1103;DHT22;538;42.654;23.376;2023-04-03T01:59:57;9.60;17.30
1103;DHT22;538;42.654;23.376;2023-04-03T02:02:24;9.70;17.10
1103;DHT22;538;42.654;23.376;2023-04-03T02:04:51;9.50;17.10
1103;DHT22;538;42.654;23.376;2023-04-03T02:07:19;9.60;17.70
1103;DHT22;538;42.654;23.376;2023-04-03T02:09:46;9.60;17.00
1103;DHT22;538;42.654;23.376;2023-04-03T02:12:13;9.40;17.00
1103;DHT22;538;42.654;23.376;2023-04-03T02:14:40;9.40;17.40
1103;DHT22;538;42.654;23.376;2023-04-03T02:17:07;9.50;17.40
1103;DHT22;538;42.654;23.376;2023-04-03T02:19:34;9.40;17.80
1103;DHT22;538;42.654;23.376;2023-04-03T02:22:01;9.50;17.40
1103;DHT22;538;42.654;23.376;2023-04-03T02:24:30;9.20;17.30
1103;DHT22;538;42.654;23.376;2023-04-03T02:26:57;9.20;17.40
1103;DHT22;538;42.654;23.376;2023-04-03T02:29:24;9.20;17.30
1103;DHT22;538;42.654;23.376;2023-04-03T02:31:51;9.30;17.40
1103;DHT22;538;42.654;23.376;2023-04-03T02:34:18;9.10;17.20
1103;DHT22;538;42.654;23.376;2023-04-03T02:36:45;9.00;17.10
1103;DHT22;538;42.654;23.376;2023-04-03T02:39:12;9.00;17.60
1103;DHT22;538;42.654;23.376;2023-04-03T02:41:40;8.90;17.70
1103;DHT22;538;42.654;23.376;2023-04-03T02:44:10;8.90;17.90
1103;DHT22;538;42.654;23.376;2023-04-03T02:46:37;8.90;18.30
1103;DHT22;538;42.654;23.376;2023-04-03T02:49:05;8.90;17.90
1103;DHT22;538;42.654;23.376;2023-04-03T02:51:32;8.80;18.20
1103;DHT22;538;42.654;23.376;2023-04-03T02:53:59;8.70;18.20
1103;DHT22;538;42.654;23.376;2023-04-03T02:56:26;8.70;18.90
1103;DHT22;538;42.654;23.376;2023-04-03T02:58:54;8.60;18.90
1103;DHT22;538;42.654;23.376;2023-04-03T03:01:21;8.30;19.20
1103;DHT22;538;42.654;23.376;2023-04-03T03:03:48;8.50;19.10
1103;DHT22;538;42.654;23.376;2023-04-03T03:06:16;8.30;19.40
1103;DHT22;538;42.654;23.376;2023-04-03T03:08:44;8.30;20.00
1103;DHT22;538;42.654;23.376;2023-04-03T03:11:11;8.30;20.40
1103;DHT22;538;42.654;23.376;2023-04-03T03:13:38;8.40;20.50
1103;DHT22;538;42.654;23.376;2023-04-03T03:16:07;8.30;20.50
1103;DHT22;538;42.654;23.376;2023-04-03T03:18:34;8.30;20.80
1103;DHT22;538;42.654;23.376;2023-04-03T03:21:03;8.30;21.10
1103;DHT22;538;42.654;23.376;2023-04-03T03:23:31;8.30;20.50
1103;DHT22;538;42.654;23.376;2023-04-03T03:26:00;8.40;20.20
1103;DHT22;538;42.654;23.376;2023-04-03T03:28:27;8.40;20.70
1103;DHT22;538;42.654;23.376;2023-04-03T03:30:54;8.30;20.30
1103;DHT22;538;42.654;23.376;2023-04-03T03:33:23;8.40;20.40
1103;DHT22;538;42.654;23.376;2023-04-03T03:35:52;8.30;20.50
1103;DHT22;538;42.654;23.376;2023-04-03T03:38:19;8.30;20.50
1103;DHT22;538;42.654;23.376;2023-04-03T03:40:47;8.30;20.80
1103;DHT22;538;42.654;23.376;2023-04-03T03:43:15;8.20;20.70
1103;DHT22;538;42.654;23.376;2023-04-03T03:45:43;8.30;20.60
1103;DHT22;538;42.654;23.376;2023-04-03T03:48:11;8.30;20.70
1103;DHT22;538;42.654;23.376;2023-04-03T03:50:39;8.40;20.80
1103;DHT22;538;42.654;23.376;2023-04-03T03:53:06;8.30;20.70
1103;DHT22;538;42.654;23.376;2023-04-03T03:55:33;8.40;20.50
1103;DHT22;538;42.654;23.376;2023-04-03T03:58:00;8.50;20.50
1103;DHT22;538;42.654;23.376;2023-04-03T04:00:28;8.30;19.90
1103;DHT22;538;42.654;23.376;2023-04-03T04:02:55;8.40;19.30
1103;DHT22;538;42.654;23.376;2023-04-03T04:05:22;8.10;19.30
1103;DHT22;538;42.654;23.376;2023-04-03T04:07:51;8.00;19.70
1103;DHT22;538;42.654;23.376;2023-04-03T04:10:18;7.80;20.20
1103;DHT22;538;42.654;23.376;2023-04-03T04:12:45;7.80;20.10
1103;DHT22;538;42.654;23.376;2023-04-03T04:15:12;7.70;20.20
1103;DHT22;538;42.654;23.376;2023-04-03T04:17:38;7.60;21.10
1103;DHT22;538;42.654;23.376;2023-04-03T04:20:07;7.50;21.40
1103;DHT22;538;42.654;23.376;2023-04-03T04:22:34;7.60;21.30
1103;DHT22;538;42.654;23.376;2023-04-03T04:25:03;7.40;21.40
1103;DHT22;538;42.654;23.376;2023-04-03T04:27:30;7.50;22.20
1103;DHT22;538;42.654;23.376;2023-04-03T04:29:57;7.40;23.00
1103;DHT22;538;42.654;23.376;2023-04-03T04:32:24;7.40;23.70
1103;DHT22;538;42.654;23.376;2023-04-03T04:34:51;7.40;24.70
1103;DHT22;538;42.654;23.376;2023-04-03T04:37:17;7.50;24.90
1103;DHT22;538;42.654;23.376;2023-04-03T04:39:45;7.50;24.80
1103;DHT22;538;42.654;23.376;2023-04-03T04:42:13;7.60;24.40
1103;DHT22;538;42.654;23.376;2023-04-03T04:44:40;7.70;24.30
1103;DHT22;538;42.654;23.376;2023-04-03T04:47:08;7.70;24.30
1103;DHT22;538;42.654;23.376;2023-04-03T04:49:35;7.90;24.50
1103;DHT22;538;42.654;23.376;2023-04-03T04:52:02;7.90;24.80
1103;DHT22;538;42.654;23.376;2023-04-03T04:54:29;8.00;24.00
1103;DHT22;538;42.654;23.376;2023-04-03T04:56:56;8.10;23.50
1103;DHT22;538;42.654;23.376;2023-04-03T04:59:25;8.30;23.30
1103;DHT22;538;42.654;23.376;2023-04-03T05:01:52;8.30;23.10
1103;DHT22;538;42.654;23.376;2023-04-03T05:04:20;8.30;22.80
1103;DHT22;538;42.654;23.376;2023-04-03T05:06:47;8.30;22.30
1103;DHT22;538;42.654;23.376;2023-04-03T05:09:14;8.40;21.90
1103;DHT22;538;42.654;23.376;2023-04-03T05:11:41;8.50;22.20
1103;DHT22;538;42.654;23.376;2023-04-03T05:14:08;8.60;22.10
1103;DHT22;538;42.654;23.376;2023-04-03T05:16:36;8.60;22.00
1103;DHT22;538;42.654;23.376;2023-04-03T05:19:03;8.60;22.20
1103;DHT22;538;42.654;23.376;2023-04-03T05:21:30;8.70;22.30
1103;DHT22;538;42.654;23.376;2023-04-03T05:23:58;8.70;22.30
1103;DHT22;538;42.654;23.376;2023-04-03T05:26:28;8.70;21.70
1103;DHT22;538;42.654;23.376;2023-04-03T05:28:55;8.90;21.30
1103;DHT22;538;42.654;23.376;2023-04-03T05:31:22;8.90;20.90
1103;DHT22;538;42.654;23.376;2023-04-03T05:33:50;9.10;21.00
1103;DHT22;538;42.654;23.376;2023-04-03T05:36:17;8.90;20.60
1103;DHT22;538;42.654;23.376;2023-04-03T05:38:45;9.00;20.30
1103;DHT22;538;42.654;23.376;2023-04-03T05:41:12;9.20;20.40
1103;DHT22;538;42.654;23.376;2023-04-03T05:43:39;9.20;20.50
1103;DHT22;538;42.654;23.376;2023-04-03T05:46:09;9.30;20.40
1103;DHT22;538;42.654;23.376;2023-04-03T05:48:36;9.30;20.70
1103;DHT22;538;42.654;23.376;2023-04-03T05:51:06;9.40;20.40
1103;DHT22;538;42.654;23.376;2023-04-03T05:53:35;9.30;20.50
1103;DHT22;538;42.654;23.376;2023-04-03T05:56:03;9.50;21.00
1103;DHT22;538;42.654;23.376;2023-04-03T05:58:30;9.50;20.90
1103;DHT22;538;42.654;23.376;2023-04-03T06:00:57;9.80;21.10
1103;DHT22;538;42.654;23.376;2023-04-03T06:03:25;9.80;20.60
1103;DHT22;538;42.654;23.376;2023-04-03T06:05:52;9.90;19.90
1103;DHT22;538;42.654;23.376;2023-04-03T06:08:21;9.90;20.30
1103;DHT22;538;42.654;23.376;2023-04-03T06:10:49;10.00;19.20
1103;DHT22;538;42.654;23.376;2023-04-03T06:13:17;10.30;18.90
1103;DHT22;538;42.654;23.376;2023-04-03T06:15:44;10.20;18.90
1103;DHT22;538;42.654;23.376;2023-04-03T06:18:12;10.30;19.40
1103;DHT22;538;42.654;23.376;2023-04-03T06:20:39;10.40;18.80
1103;DHT22;538;42.654;23.376;2023-04-03T06:23:06;10.40;17.90
1103;DHT22;538;42.654;23.376;2023-04-03T06:25:34;10.40;18.10
1103;DHT22;538;42.654;23.376;2023-04-03T06:28:01;10.50;17.70
1103;DHT22;538;42.654;23.376;2023-04-03T06:30:28;10.70;17.90
1103;DHT22;538;42.654;23.376;2023-04-03T06:32:55;10.80;17.60
1103;DHT22;538;42.654;23.376;2023-04-03T06:35:24;10.80;18.00
1103;DHT22;538;42.654;23.376;2023-04-03T06:37:53;10.80;18.00
1103;DHT22;538;42.654;23.376;2023-04-03T06:40:23;11.10;17.50
1103;DHT22;538;42.654;23.376;2023-04-03T06:42:52;11.00;17.30
1103;DHT22;538;42.654;23.376;2023-04-03T06:45:19;11.20;17.20
1103;DHT22;538;42.654;23.376;2023-04-03T06:47:47;11.40;17.20
1103;DHT22;538;42.654;23.376;2023-04-03T06:50:14;11.30;16.50
1103;DHT22;538;42.654;23.376;2023-04-03T06:52:41;11.50;16.10
1103;DHT22;538;42.654;23.376;2023-04-03T06:55:09;11.40;15.90
1103;DHT22;538;42.654;23.376;2023-04-03T06:57:37;11.60;15.80
1103;DHT22;538;42.654;23.376;2023-04-03T07:00:06;11.60;16.20
1103;DHT22;538;42.654;23.376;2023-04-03T07:02:34;11.60;16.10
1103;DHT22;538;42.654;23.376;2023-04-03T07:05:01;11.60;15.20
1103;DHT22;538;42.654;23.376;2023-04-03T07:07:29;11.70;14.80
1103;DHT22;538;42.654;23.376;2023-04-03T07:09:56;11.60;14.60
1103;DHT22;538;42.654;23.376;2023-04-03T07:12:23;11.70;14.40
1103;DHT22;538;42.654;23.376;2023-04-03T07:14:50;11.70;14.40
1103;DHT22;538;42.654;23.376;2023-04-03T07:17:18;11.70;14.90
1103;DHT22;538;42.654;23.376;2023-04-03T07:19:46;11.70;15.10
1103;DHT22;538;42.654;23.376;2023-04-03T07:22:13;11.80;14.80
1103;DHT22;538;42.654;23.376;2023-04-03T07:24:40;11.80;15.00
1103;DHT22;538;42.654;23.376;2023-04-03T07:27:07;11.80;14.90
1103;DHT22;538;42.654;23.376;2023-04-03T07:29:34;11.80;15.30
1103;DHT22;538;42.654;23.376;2023-04-03T07:32:02;11.80;15.40
1103;DHT22;538;42.654;23.376;2023-04-03T07:34:31;12.10;14.60
1103;DHT22;538;42.654;23.376;2023-04-03T07:36:59;12.10;15.00
1103;DHT22;538;42.654;23.376;2023-04-03T07:39:26;12.10;15.20
1103;DHT22;538;42.654;23.376;2023-04-03T07:41:53;12.40;15.40
1103;DHT22;538;42.654;23.376;2023-04-03T07:44:21;12.30;15.70
1103;DHT22;538;42.654;23.376;2023-04-03T07:46:48;12.40;15.20
1103;DHT22;538;42.654;23.376;2023-04-03T07:49:16;12.50;14.50
1103;DHT22;538;42.654;23.376;2023-04-03T07:51:45;12.60;14.20
1103;DHT22;538;42.654;23.376;2023-04-03T07:56:39;12.60;13.90
1103;DHT22;538;42.654;23.376;2023-04-03T07:59:08;12.70;14.40
1103;DHT22;538;42.654;23.376;2023-04-03T08:01:36;12.60;14.20
1103;DHT22;538;42.654;23.376;2023-04-03T08:04:10;12.70;14.40
1103;DHT22;538;42.654;23.376;2023-04-03T08:06:46;12.90;14.10
1103;DHT22;538;42.654;23.376;2023-04-03T08:09:14;12.90;14.00
1103;DHT22;538;42.654;23.376;2023-04-03T08:11:48;12.80;14.40
1103;DHT22;538;42.654;23.376;2023-04-03T08:19:45;13.00;13.60
1103;DHT22;538;42.654;23.376;2023-04-03T08:22:13;13.10;13.60
1103;DHT22;538;42.654;23.376;2023-04-03T08:24:41;13.10;13.90
1103;DHT22;538;42.654;23.376;2023-04-03T08:27:08;13.20;14.00
1103;DHT22;538;42.654;23.376;2023-04-03T08:29:35;13.40;13.70
1103;DHT22;538;42.654;23.376;2023-04-03T08:32:03;13.50;13.20
1103;DHT22;538;42.654;23.376;2023-04-03T08:34:31;13.50;13.50
1103;DHT22;538;42.654;23.376;2023-04-03T08:37:00;13.80;13.30
1103;DHT22;538;42.654;23.376;2023-04-03T08:39:29;13.70;13.60
1103;DHT22;538;42.654;23.376;2023-04-03T08:41:57;13.70;13.30
1103;DHT22;538;42.654;23.376;2023-04-03T08:44:35;13.90;12.80
1103;DHT22;538;42.654;23.376;2023-04-03T08:47:12;14.00;12.70
1103;DHT22;538;42.654;23.376;2023-04-03T08:49:44;14.10;12.00
1103;DHT22;538;42.654;23.376;2023-04-03T08:52:15;14.10;12.50
1103;DHT22;538;42.654;23.376;2023-04-03T08:54:50;14.10;12.20
1103;DHT22;538;42.654;23.376;2023-04-03T08:57:20;14.10;11.50
1103;DHT22;538;42.654;23.376;2023-04-03T08:59:47;14.10;11.20
1103;DHT22;538;42.654;23.376;2023-04-03T09:02:27;14.10;11.40
1103;DHT22;538;42.654;23.376;2023-04-03T09:04:55;14.10;12.00
1103;DHT22;538;42.654;23.376;2023-04-03T09:07:31;14.20;12.50
1103;DHT22;538;42.654;23.376;2023-04-03T09:10:01;14.30;12.60
1103;DHT22;538;42.654;23.376;2023-04-03T09:12:34;14.30;11.80
1103;DHT22;538;42.654;23.376;2023-04-03T09:15:13;14.30;12.40
1103;DHT22;538;42.654;23.376;2023-04-03T09:17:50;14.40;12.30
1103;DHT22;538;42.654;23.376;2023-04-03T09:20:24;14.50;12.50
1103;DHT22;538;42.654;23.376;2023-04-03T09:22:53;14.60;11.40
1103;DHT22;538;42.654;23.376;2023-04-03T09:25:23;14.60;11.10
1103;DHT22;538;42.654;23.376;2023-04-03T09:27:52;14.70;11.00
1103;DHT22;538;42.654;23.376;2023-04-03T09:30:21;14.70;10.60
1103;DHT22;538;42.654;23.376;2023-04-03T09:32:51;14.80;11.20
1103;DHT22;538;42.654;23.376;2023-04-03T09:35:24;14.90;10.90
1103;DHT22;538;42.654;23.376;2023-04-03T09:37:53;15.00;10.90
1103;DHT22;538;42.654;23.376;2023-04-03T09:40:35;15.10;11.00
1103;DHT22;538;42.654;23.376;2023-04-03T09:43:20;15.30;10.60
1103;DHT22;538;42.654;23.376;2023-04-03T09:45:49;15.40;10.00
1103;DHT22;538;42.654;23.376;2023-04-03T09:48:18;15.40;9.70
1103;DHT22;538;42.654;23.376;2023-04-03T09:51:00;15.50;10.10
1103;DHT22;538;42.654;23.376;2023-04-03T09:53:34;15.60;10.00
1103;DHT22;538;42.654;23.376;2023-04-03T09:56:09;15.60;9.60
1103;DHT22;538;42.654;23.376;2023-04-03T09:58:46;15.60;9.50
1103;DHT22;538;42.654;23.376;2023-04-03T10:01:23;15.60;9.50
1103;DHT22;538;42.654;23.376;2023-04-03T10:04:07;15.60;9.50
1103;DHT22;538;42.654;23.376;2023-04-03T10:06:36;15.50;9.50
1103;DHT22;538;42.654;23.376;2023-04-03T10:09:06;15.50;9.40
1103;DHT22;538;42.654;23.376;2023-04-03T10:11:35;15.50;9.40
1103;DHT22;538;42.654;23.376;2023-04-03T10:14:03;15.50;9.40
1103;DHT22;538;42.654;23.376;2023-04-03T10:16:36;16.20;9.90
1103;DHT22;538;42.654;23.376;2023-04-03T10:19:31;15.40;9.70
1103;DHT22;538;42.654;23.376;2023-04-03T10:22:03;15.40;9.70
1103;DHT22;538;42.654;23.376;2023-04-03T10:24:49;15.40;9.30
1103;DHT22;538;42.654;23.376;2023-04-03T10:27:26;15.30;8.70
1103;DHT22;538;42.654;23.376;2023-04-03T10:30:00;15.30;8.30
1103;DHT22;538;42.654;23.376;2023-04-03T10:32:47;15.30;8.70
1103;DHT22;538;42.654;23.376;2023-04-03T10:35:25;15.20;8.90
1103;DHT22;538;42.654;23.376;2023-04-03T10:38:03;15.10;8.90
1103;DHT22;538;42.654;23.376;2023-04-03T10:40:38;15.20;9.10
1103;DHT22;538;42.654;23.376;2023-04-03T10:43:12;15.10;7.90
1103;DHT22;538;42.654;23.376;2023-04-03T10:45:51;15.00;8.10
1103;DHT22;538;42.654;23.376;2023-04-03T10:48:33;15.10;8.70
1103;DHT22;538;42.654;23.376;2023-04-03T10:51:12;15.10;8.50
1103;DHT22;538;42.654;23.376;2023-04-03T10:53:47;15.00;8.80
1103;DHT22;538;42.654;23.376;2023-04-03T10:56:19;15.00;7.70
1103;DHT22;538;42.654;23.376;2023-04-03T10:58:53;14.90;8.20
1103;DHT22;538;42.654;23.376;2023-04-03T11:01:27;14.80;8.60
1103;DHT22;538;42.654;23.376;2023-04-03T11:03:57;14.80;8.90
1103;DHT22;538;42.654;23.376;2023-04-03T11:06:28;14.70;9.80
1103;DHT22;538;42.654;23.376;2023-04-03T11:09:02;14.70;10.00
1103;DHT22;538;42.654;23.376;2023-04-03T11:11:34;14.70;10.40
1103;DHT22;538;42.654;23.376;2023-04-03T11:14:09;14.50;10.10
1103;DHT22;538;42.654;23.376;2023-04-03T11:16:43;14.30;10.70
1103;DHT22;538;42.654;23.376;2023-04-03T11:19:18;14.00;12.00
1103;DHT22;538;42.654;23.376;2023-04-03T11:21:52;13.90;12.30
1103;DHT22;538;42.654;23.376;2023-04-03T11:24:24;13.80;13.50
1103;DHT22;538;42.654;23.376;2023-04-03T11:26:54;13.70;15.60
1103;DHT22;538;42.654;23.376;2023-04-03T11:29:26;13.70;17.50
1103;DHT22;538;42.654;23.376;2023-04-03T11:32:06;13.70;19.60
1103;DHT22;538;42.654;23.376;2023-04-03T11:34:38;13.70;20.00
1103;DHT22;538;42.654;23.376;2023-04-03T11:37:15;13.80;20.40
1103;DHT22;538;42.654;23.376;2023-04-03T11:39:50;13.90;20.80
1103;DHT22;538;42.654;23.376;2023-04-03T11:42:27;13.90;21.80
1103;DHT22;538;42.654;23.376;2023-04-03T11:45:24;13.90;22.30
1103;DHT22;538;42.654;23.376;2023-04-03T11:47:53;13.70;22.70
1103;DHT22;538;42.654;23.376;2023-04-03T11:50:39;13.80;23.10
1103;DHT22;538;42.654;23.376;2023-04-03T11:53:32;13.80;23.40
1103;DHT22;538;42.654;23.376;2023-04-03T11:56:28;13.50;22.90
1103;DHT22;538;42.654;23.376;2023-04-03T11:59:23;13.40;24.60
1103;DHT22;538;42.654;23.376;2023-04-03T12:01:53;13.20;25.80
1103;DHT22;538;42.654;23.376;2023-04-03T12:04:23;13.30;26.30
1103;DHT22;538;42.654;23.376;2023-04-03T12:07:12;13.20;28.30
1103;DHT22;538;42.654;23.376;2023-04-03T12:10:17;13.10;30.20
1103;DHT22;538;42.654;23.376;2023-04-03T12:13:00;13.00;32.30
1103;DHT22;538;42.654;23.376;2023-04-03T12:15:51;13.00;33.80
1103;DHT22;538;42.654;23.376;2023-04-03T12:18:41;12.80;34.80
1103;DHT22;538;42.654;23.376;2023-04-03T12:21:09;12.90;35.40
1103;DHT22;538;42.654;23.376;2023-04-03T12:24:02;12.90;37.60
1103;DHT22;538;42.654;23.376;2023-04-03T12:26:33;12.90;40.10
1103;DHT22;538;42.654;23.376;2023-04-03T12:29:13;12.80;41.60
1103;DHT22;538;42.654;23.376;2023-04-03T12:31:48;12.90;42.30
1103;DHT22;538;42.654;23.376;2023-04-03T12:34:27;12.90;42.10
1103;DHT22;538;42.654;23.376;2023-04-03T12:37:03;12.90;42.50
1103;DHT22;538;42.654;23.376;2023-04-03T12:39:49;12.80;42.50
1103;DHT22;538;42.654;23.376;2023-04-03T12:42:40;12.80;43.10
1103;DHT22;538;42.654;23.376;2023-04-03T12:45:17;12.80;44.30
1103;DHT22;538;42.654;23.376;2023-04-03T12:47:49;12.80;45.00
1103;DHT22;538;42.654;23.376;2023-04-03T12:50:22;12.60;45.30
1103;DHT22;538;42.654;23.376;2023-04-03T12:52:56;12.80;46.00
1103;DHT22;538;42.654;23.376;2023-04-03T12:55:23;12.70;46.10
1103;DHT22;538;42.654;23.376;2023-04-03T12:57:50;12.80;47.70
1103;DHT22;538;42.654;23.376;2023-04-03T13:00:30;12.70;48.30
1103;DHT22;538;42.654;23.376;2023-04-03T13:02:59;12.70;48.40
1103;DHT22;538;42.654;23.376;2023-04-03T13:05:30;12.70;48.00
1103;DHT22;538;42.654;23.376;2023-04-03T13:08:00;12.50;48.20
1103;DHT22;538;42.654;23.376;2023-04-03T13:10:29;12.50;47.50
1103;DHT22;538;42.654;23.376;2023-04-03T13:12:58;12.60;48.10
1103;DHT22;538;42.654;23.376;2023-04-03T13:15:27;12.60;49.10
1103;DHT22;538;42.654;23.376;2023-04-03T13:17:55;12.40;49.70
1103;DHT22;538;42.654;23.376;2023-04-03T13:20:26;12.40;49.90
1103;DHT22;538;42.654;23.376;2023-04-03T13:22:57;12.40;51.20
1103;DHT22;538;42.654;23.376;2023-04-03T13:25:28;12.30;51.00
1103;DHT22;538;42.654;23.376;2023-04-03T13:27:58;12.40;51.40
1103;DHT22;538;42.654;23.376;2023-04-03T13:30:28;12.30;51.40
1103;DHT22;538;42.654;23.376;2023-04-03T13:32:57;12.30;52.60
1103;DHT22;538;42.654;23.376;2023-04-03T13:35:27;12.30;53.40
1103;DHT22;538;42.654;23.376;2023-04-03T13:37:58;12.30;54.20
1103;DHT22;538;42.654;23.376;2023-04-03T13:40:25;12.20;55.00
1103;DHT22;538;42.654;23.376;2023-04-03T13:43:02;12.20;54.70
1103;DHT22;538;42.654;23.376;2023-04-03T13:45:31;12.10;54.80
1103;DHT22;538;42.654;23.376;2023-04-03T13:48:14;12.10;55.40
1103;DHT22;538;42.654;23.376;2023-04-03T13:51:00;12.10;54.70
1103;DHT22;538;42.654;23.376;2023-04-03T13:53:31;12.00;55.00
1103;DHT22;538;42.654;23.376;2023-04-03T13:56:05;11.80;53.40
1103;DHT22;538;42.654;23.376;2023-04-03T13:58:34;11.80;54.70
1103;DHT22;538;42.654;23.376;2023-04-03T14:01:08;11.80;55.10
1103;DHT22;538;42.654;23.376;2023-04-03T14:03:41;11.70;56.30
1103;DHT22;538;42.654;23.376;2023-04-03T14:06:11;11.60;57.60
1103;DHT22;538;42.654;23.376;2023-04-03T14:08:41;11.70;60.00
1103;DHT22;538;42.654;23.376;2023-04-03T14:11:12;11.60;60.50
1103;DHT22;538;42.654;23.376;2023-04-03T14:13:41;11.60;61.50
1103;DHT22;538;42.654;23.376;2023-04-03T14:16:13;11.70;63.50
1103;DHT22;538;42.654;23.376;2023-04-03T14:18:40;11.60;64.30
1103;DHT22;538;42.654;23.376;2023-04-03T14:21:10;11.60;63.50
1103;DHT22;538;42.654;23.376;2023-04-03T14:23:38;11.50;64.00
1103;DHT22;538;42.654;23.376;2023-04-03T14:26:11;11.70;62.50
1103;DHT22;538;42.654;23.376;2023-04-03T14:28:38;11.50;62.00
1103;DHT22;538;42.654;23.376;2023-04-03T14:31:06;11.50;62.50
1103;DHT22;538;42.654;23.376;2023-04-03T14:33:33;11.30;61.70
1103;DHT22;538;42.654;23.376;2023-04-03T14:36:10;11.30;62.30
1103;DHT22;538;42.654;23.376;2023-04-03T14:38:41;11.20;65.90
1103;DHT22;538;42.654;23.376;2023-04-03T14:41:12;11.30;69.30
1103;DHT22;538;42.654;23.376;2023-04-03T14:43:39;11.20;69.10
1103;DHT22;538;42.654;23.376;2023-04-03T14:46:12;11.10;69.40
1103;DHT22;538;42.654;23.376;2023-04-03T14:48:42;11.30;69.30
1103;DHT22;538;42.654;23.376;2023-04-03T14:51:10;11.10;70.90
1103;DHT22;538;42.654;23.376;2023-04-03T14:53:38;11.10;71.70
1103;DHT22;538;42.654;23.376;2023-04-03T14:56:22;11.10;74.90
1103;DHT22;538;42.654;23.376;2023-04-03T14:58:53;11.20;73.90
1103;DHT22;538;42.654;23.376;2023-04-03T15:01:22;11.10;72.80
1103;DHT22;538;42.654;23.376;2023-04-03T15:03:49;11.10;73.40
1103;DHT22;538;42.654;23.376;2023-04-03T15:06:16;11.10;73.60
1103;DHT22;538;42.654;23.376;2023-04-03T15:08:44;11.00;72.60
1103;DHT22;538;42.654;23.376;2023-04-03T15:11:14;11.00;70.70
1103;DHT22;538;42.654;23.376;2023-04-03T15:13:41;11.00;69.00
1103;DHT22;538;42.654;23.376;2023-04-03T15:16:14;11.10;67.90
1103;DHT22;538;42.654;23.376;2023-04-03T15:18:44;11.00;67.60
1103;DHT22;538;42.654;23.376;2023-04-03T15:21:11;11.10;69.20
1103;DHT22;538;42.654;23.376;2023-04-03T15:23:39;10.90;70.80
1103;DHT22;538;42.654;23.376;2023-04-03T15:26:07;10.90;72.10
1103;DHT22;538;42.654;23.376;2023-04-03T15:28:38;10.90;73.40
1103;DHT22;538;42.654;23.376;2023-04-03T15:31:06;11.00;74.50
1103;DHT22;538;42.654;23.376;2023-04-03T15:33:34;11.10;74.80
1103;DHT22;538;42.654;23.376;2023-04-03T15:36:01;10.90;74.60
1103;DHT22;538;42.654;23.376;2023-04-03T15:38:28;13.60;76.60
1103;DHT22;538;42.654;23.376;2023-04-03T15:40:56;11.00;73.70
1103;DHT22;538;42.654;23.376;2023-04-03T15:43:23;11.00;74.00
1103;DHT22;538;42.654;23.376;2023-04-03T15:45:53;10.90;74.30
1103;DHT22;538;42.654;23.376;2023-04-03T15:48:23;11.00;74.80
1103;DHT22;538;42.654;23.376;2023-04-03T15:50:50;11.00;74.20
1103;DHT22;538;42.654;23.376;2023-04-03T15:53:18;10.90;73.70
1103;DHT22;538;42.654;23.376;2023-04-03T15:55:45;11.00;74.20
1103;DHT22;538;42.654;23.376;2023-04-03T15:58:15;11.00;73.60
1103;DHT22;538;42.654;23.376;2023-04-03T16:00:43;11.00;72.70
1103;DHT22;538;42.654;23.376;2023-04-03T16:03:15;11.00;73.30
1103;DHT22;538;42.654;23.376;2023-04-03T16:05:42;10.90;72.50
1103;DHT22;538;42.654;23.376;2023-04-03T16:08:10;10.90;71.90
1103;DHT22;538;42.654;23.376;2023-04-03T16:10:38;10.80;72.50
1103;DHT22;538;42.654;23.376;2023-04-03T16:13:06;10.70;75.00
1103;DHT22;538;42.654;23.376;2023-04-03T16:15:35;10.60;76.90
1103;DHT22;538;42.654;23.376;2023-04-03T16:18:03;10.70;77.60
1103;DHT22;538;42.654;23.376;2023-04-03T16:20:33;10.70;78.40
1103;DHT22;538;42.654;23.376;2023-04-03T16:23:01;10.70;78.50
1103;DHT22;538;42.654;23.376;2023-04-03T16:25:28;10.70;78.40
1103;DHT22;538;42.654;23.376;2023-04-03T16:27:56;10.70;79.00
1103;DHT22;538;42.654;23.376;2023-04-03T16:30:23;10.70;76.60
1103;DHT22;538;42.654;23.376;2023-04-03T16:32:50;10.60;76.10
1103;DHT22;538;42.654;23.376;2023-04-03T16:35:19;10.60;77.60
1103;DHT22;538;42.654;23.376;2023-04-03T16:37:47;10.60;79.40